This is the latest recevied weather packets stored in our database for station/object W8LMG. If no packets are shown the sender has not sent any weather packets the latest 10 day(s).
| Time | Temp. | Humidity | Pressure | Rain* | Wind** | Luminosity | Snow |
|---|---|---|---|---|---|---|---|
| 1777298995 | 11.67° C | 65% | 1023.6 hPa | 0 mm | - | 206 W/m² | - |
| 1777298693 | 11.67° C | 68% | 1023.7 hPa | 0 mm | - | 159 W/m² | - |
| 1777298389 | 11.67° C | 68% | 1023.9 hPa | 0 mm | - | 214 W/m² | - |
| 1777298086 | 11.67° C | 68% | 1023.9 hPa | 0 mm | - | 282 W/m² | - |
| 1777297785 | 11.11° C | 70% | 1024 hPa | 0 mm | - | 278 W/m² | - |
| 1777297484 | 11.11° C | 70% | 1024.1 hPa | 0 mm | - | 308 W/m² | - |
| 1777297180 | 10.56° C | 72% | 1024.2 hPa | 0 mm | - | 349 W/m² | - |
| 1777296878 | 10.56° C | 72% | 1024 hPa | 0 mm | - | 38 W/m² | - |
| 1777296573 | 10.56° C | 74% | 1024.1 hPa | 0 mm | - | 37 W/m² | - |
| 1777296239 | 10.56° C | 73% | 1024.2 hPa | 0 mm | - | 85 W/m² | - |
| 1777295935 | 10° C | 77% | 1024 hPa | 0 mm | - | 262 W/m² | - |
| 1777295633 | 10° C | 73% | 1024.3 hPa | 0 mm | - | 203 W/m² | - |
| 1777295330 | 9.44° C | 76% | 1024.3 hPa | 0 mm | - | 217 W/m² | - |
| 1777295028 | 9.44° C | 78% | 1024.2 hPa | 0 mm | - | 43 W/m² | - |
| 1777294724 | 9.44° C | 76% | 1024.6 hPa | 0 mm | - | 285 W/m² | - |
| 1777294419 | 8.89° C | 77% | 1024.3 hPa | 0 mm | - | 256 W/m² | - |
| 1777294116 | 9.44° C | 76% | 1024.3 hPa | 0 mm | - | 118 W/m² | - |
| 1777293814 | 8.89° C | 78% | 1024.3 hPa | 0 mm | - | 128 W/m² | - |
| 1777293514 | 8.89° C | 78% | 1024.4 hPa | 0 mm | - | 186 W/m² | - |
| 1777293210 | 8.89° C | 78% | 1024.5 hPa | 0 mm | - | 88 W/m² | - |
| 1777292909 | 8.33° C | 80% | 1024.4 hPa | 0 mm | - | 70 W/m² | - |
| 1777292605 | 8.33° C | 79% | 1024.6 hPa | 0 mm | - | 69 W/m² | - |
| 1777292301 | 8.33° C | 79% | 1024.5 hPa | 0 mm | - | 66 W/m² | - |
| 1777291997 | 8.33° C | 79% | 1024.5 hPa | 0 mm | - | 75 W/m² | - |
| 1777291694 | 8.33° C | 80% | 1024.4 hPa | 0 mm | - | 85 W/m² | - |
* Rain latest hour (hover to see other rain measurements)
** Current wind speed in m/s (hover to see current wind gust speed)